createdAt,value
2023-05-22T00:02:33.148Z,99093.47
2023-05-22T00:05:39.220Z,99090.69
2023-05-22T00:08:41.764Z,99100.56
2023-05-22T00:11:44.181Z,99108.94
2023-05-22T00:14:46.451Z,99101.97
2023-05-22T00:17:48.732Z,99090.84
2023-05-22T00:20:51.886Z,99103.97
2023-05-22T00:23:54.159Z,99107.69
2023-05-22T00:26:56.493Z,99102.41
2023-05-22T00:29:59.374Z,99091.06
2023-05-22T00:33:02.831Z,99103.75
2023-05-22T00:36:06.203Z,99104.47
2023-05-22T00:39:09.763Z,99096.94
2023-05-22T00:42:12.534Z,99108.00
2023-05-22T00:45:15.329Z,99106.91
2023-05-22T00:48:17.608Z,99096.88
2023-05-22T00:51:24.124Z,99096.13
2023-05-22T00:54:26.571Z,99094.59
2023-05-22T00:57:28.939Z,99091.88
2023-05-22T01:00:34.316Z,99092.31
2023-05-22T01:03:44.665Z,99087.16
2023-05-22T01:06:47.758Z,99084.38
2023-05-22T01:09:50.138Z,99071.16
2023-05-22T01:13:10.324Z,99077.50
2023-05-22T01:16:30.088Z,99077.19
2023-05-22T01:19:39.482Z,99085.16
2023-05-22T01:22:50.062Z,99067.63
2023-05-22T01:26:04.861Z,99068.66
2023-05-22T01:29:19.110Z,99075.13
2023-05-22T01:32:26.240Z,99079.63
2023-05-22T01:35:29.928Z,99072.09
2023-05-22T01:38:32.771Z,99070.63
2023-05-22T01:41:36.294Z,99063.81
2023-05-22T01:44:38.959Z,99053.50
2023-05-22T01:47:41.320Z,99060.16
2023-05-22T01:50:45.395Z,99064.16
2023-05-22T01:54:26.309Z,99060.88
2023-05-22T01:57:37.537Z,99064.94
2023-05-22T02:00:43.807Z,99051.03
2023-05-22T02:03:51.816Z,99053.63
2023-05-22T02:06:54.424Z,99046.41
2023-05-22T02:09:57.792Z,99062.53
2023-05-22T02:13:00.448Z,99057.47
2023-05-22T02:16:04.194Z,99060.94
2023-05-22T02:19:06.860Z,99061.22
2023-05-22T02:22:13.814Z,99067.34
2023-05-22T02:25:17.262Z,99060.28
2023-05-22T02:28:20.827Z,99057.72
2023-05-22T02:31:23.378Z,99057.72
2023-05-22T02:34:26.904Z,99066.72
2023-05-22T02:37:29.242Z,99071.19
2023-05-22T02:40:31.514Z,99075.91
2023-05-22T02:43:34.311Z,99063.69
2023-05-22T02:46:36.933Z,99062.34
2023-05-22T02:49:39.257Z,99059.00
2023-05-22T02:52:41.539Z,99054.56
2023-05-22T02:55:43.949Z,99058.25
2023-05-22T02:58:46.204Z,99054.56
2023-05-22T03:01:49.468Z,99053.09
2023-05-22T03:04:51.855Z,99058.50
2023-05-22T03:07:54.223Z,99052.97
2023-05-22T03:10:58.153Z,99053.78
2023-05-22T03:14:00.735Z,99050.56
2023-05-22T03:17:03.714Z,99058.19
2023-05-22T03:20:08.535Z,99057.66
2023-05-22T03:23:12.074Z,99054.34
2023-05-22T03:26:14.924Z,99053.50
2023-05-22T03:29:17.756Z,99054.56
2023-05-22T03:32:20.163Z,99049.13
2023-05-22T03:35:24.798Z,99053.63
2023-05-22T03:38:27.173Z,99054.03
2023-05-22T03:41:30.709Z,99048.59
2023-05-22T03:44:33.045Z,99052.13
2023-05-22T03:47:36.718Z,99051.50
2023-05-22T03:50:39.256Z,99054.78
2023-05-22T03:53:41.747Z,99051.34
2023-05-22T03:56:44.106Z,99049.38
2023-05-22T03:59:46.713Z,99052.66
2023-05-22T04:02:50.529Z,99044.34
2023-05-22T04:05:53.498Z,99050.22
2023-05-22T04:08:55.785Z,99040.59
2023-05-22T04:11:59.498Z,99053.72
2023-05-22T04:15:01.994Z,99044.53
2023-05-22T04:18:06.558Z,99043.41
2023-05-22T04:21:09.870Z,99045.69
2023-05-22T04:24:12.329Z,99038.13
2023-05-22T04:27:15.297Z,99043.41
2023-05-22T04:30:18.482Z,99026.03
2023-05-22T04:33:21.856Z,99030.63
2023-05-22T04:36:26.201Z,99024.38
2023-05-22T04:39:28.783Z,99022.75
2023-05-22T04:42:37.440Z,99027.84
2023-05-22T04:45:42.323Z,99029.91
2023-05-22T04:48:44.858Z,99032.59
2023-05-22T04:51:47.136Z,99021.13
2023-05-22T04:54:51.699Z,99029.63
2023-05-22T04:57:54.232Z,99018.88
2023-05-22T05:00:57.840Z,99017.25
2023-05-22T05:04:00.776Z,99024.59
2023-05-22T05:07:04.465Z,99024.78
2023-05-22T05:10:07.866Z,99024.25
2023-05-22T05:13:10.264Z,99015.97
2023-05-22T05:16:14.665Z,99019.16
2023-05-22T05:19:17.757Z,99012.97
2023-05-22T05:22:20.772Z,99022.56
2023-05-22T05:25:23.304Z,99021.63
2023-05-22T05:28:26.272Z,99028.63
2023-05-22T05:31:29.420Z,99029.69
2023-05-22T05:34:43.792Z,99041.03
2023-05-22T05:37:55.723Z,99033.94
2023-05-22T05:40:59.128Z,99044.03
2023-05-22T05:44:02.758Z,99055.38
2023-05-22T05:47:07.862Z,99064.22
2023-05-22T05:50:11.014Z,99062.47
2023-05-22T05:53:14.416Z,99059.59
2023-05-22T05:56:21.932Z,99058.13
2023-05-22T05:59:24.772Z,99054.25
2023-05-22T06:02:34.652Z,99050.19
2023-05-22T06:05:38.241Z,99051.09
2023-05-22T06:08:57.241Z,99052.19
2023-05-22T06:12:06.615Z,99054.88
2023-05-22T06:15:09.104Z,99057.91
2023-05-22T06:18:11.844Z,99067.03
2023-05-22T06:21:14.769Z,99062.56
2023-05-22T06:24:17.091Z,99063.16
2023-05-22T06:27:20.112Z,99064.34
2023-05-22T06:30:38.734Z,99068.94
2023-05-22T06:33:44.936Z,99061.53
2023-05-22T06:36:50.213Z,99067.44
2023-05-22T06:39:53.366Z,99063.97
2023-05-22T06:43:21.869Z,99064.47
2023-05-22T06:46:31.304Z,99068.91
2023-05-22T06:49:37.902Z,99062.94
2023-05-22T06:52:40.426Z,99060.78
2023-05-22T06:55:45.069Z,99052.81
2023-05-22T06:58:54.779Z,99065.53
2023-05-22T07:02:01.615Z,99068.56
2023-05-22T07:05:22.151Z,99065.50
2023-05-22T07:08:34.156Z,99065.94
2023-05-22T07:11:38.096Z,99065.03
2023-05-22T07:14:40.785Z,99058.16
2023-05-22T07:17:43.358Z,99059.44
2023-05-22T07:20:46.214Z,99068.31
2023-05-22T07:23:55.368Z,99064.94
2023-05-22T07:27:02.348Z,99056.16
2023-05-22T07:30:06.592Z,99052.69
2023-05-22T07:33:12.675Z,99054.31
2023-05-22T07:36:19.385Z,99056.06
2023-05-22T07:39:24.141Z,99052.31
2023-05-22T07:42:35.081Z,99057.56
2023-05-22T07:45:40.257Z,99053.09
2023-05-22T07:48:47.276Z,99047.59
2023-05-22T07:51:52.383Z,99045.78
2023-05-22T07:55:02.308Z,99048.06
2023-05-22T07:58:05.222Z,99049.94
2023-05-22T08:01:13.030Z,99055.72
2023-05-22T08:04:16.179Z,99056.22
2023-05-22T08:07:18.667Z,99046.13
2023-05-22T08:10:27.965Z,99055.44
2023-05-22T08:13:32.424Z,99055.63
2023-05-22T08:16:35.302Z,99053.75
2023-05-22T08:19:37.891Z,99053.75
2023-05-22T08:22:41.408Z,99048.53
2023-05-22T08:25:43.950Z,99055.59
2023-05-22T08:28:46.256Z,99050.28
2023-05-22T08:31:48.582Z,99054.28
2023-05-22T08:34:50.896Z,99055.88
2023-05-22T08:37:53.305Z,99059.44
2023-05-22T08:40:55.818Z,99049.41
2023-05-22T08:43:58.349Z,99050.16
2023-05-22T08:47:01.397Z,99044.25
2023-05-22T08:50:04.695Z,99051.66
2023-05-22T08:53:08.215Z,99045.69
2023-05-22T08:56:10.609Z,99041.53
2023-05-22T08:59:13.524Z,99045.72
2023-05-22T09:02:17.653Z,99037.88
2023-05-22T09:05:28.402Z,99038.97
2023-05-22T09:08:30.845Z,99053.31
2023-05-22T09:11:33.123Z,99032.94
2023-05-22T09:14:42.963Z,99035.38
2023-05-22T09:17:45.982Z,99043.00
2023-05-22T09:20:48.343Z,99031.53
2023-05-22T09:23:51.085Z,99037.63
2023-05-22T09:26:53.414Z,99036.47
2023-05-22T09:29:57.277Z,99035.19
2023-05-22T09:32:59.635Z,99027.53
2023-05-22T09:36:02.172Z,99027.31
2023-05-22T09:39:05.150Z,99022.09
2023-05-22T09:42:09.710Z,99018.38
2023-05-22T09:45:12.769Z,99013.69
2023-05-22T09:48:17.360Z,99017.19
2023-05-22T09:51:23.791Z,99008.28
2023-05-22T09:54:27.180Z,99018.03
2023-05-22T09:57:43.252Z,99013.81
2023-05-22T10:00:52.142Z,99008.91
2023-05-22T10:03:57.287Z,99007.53
2023-05-22T10:07:03.703Z,99003.19
2023-05-22T10:10:12.128Z,99006.75
2023-05-22T10:13:15.065Z,99000.38
2023-05-22T10:16:17.851Z,98999.44
2023-05-22T10:19:21.382Z,98999.09
2023-05-22T10:22:26.588Z,98999.22
2023-05-22T10:25:30.333Z,98995.19
2023-05-22T10:28:57.313Z,98987.69
2023-05-22T10:32:35.831Z,98993.09
2023-05-22T10:36:04.839Z,98990.31
2023-05-22T10:39:26.590Z,98981.97
2023-05-22T10:42:33.242Z,98976.28
2023-05-22T10:45:36.787Z,98979.69
2023-05-22T10:48:40.624Z,98976.16
2023-05-22T10:51:45.299Z,98965.88
2023-05-22T10:54:53.565Z,98975.22
2023-05-22T10:57:57.089Z,98959.53
2023-05-22T11:01:18.958Z,98966.81
2023-05-22T11:04:25.806Z,98956.41
2023-05-22T11:07:40.696Z,98953.06
2023-05-22T11:10:59.034Z,98962.38
2023-05-22T11:14:05.352Z,98954.03
2023-05-22T11:17:07.933Z,98940.53
2023-05-22T11:20:20.318Z,98941.56
2023-05-22T11:23:25.692Z,98928.94
2023-05-22T11:26:28.324Z,98927.66
2023-05-22T11:29:31.020Z,98933.50
2023-05-22T11:32:36.536Z,98932.72
2023-05-22T11:35:40.053Z,98933.41
2023-05-22T11:38:43.202Z,98927.59
2023-05-22T11:41:45.478Z,98928.63
2023-05-22T11:44:48.164Z,98927.28
2023-05-22T11:47:50.849Z,98926.63
2023-05-22T11:50:53.633Z,98917.31
2023-05-22T11:53:57.298Z,98918.31
2023-05-22T11:56:59.638Z,98920.28
2023-05-22T12:00:04.236Z,98916.97
2023-05-22T12:03:14.273Z,98916.25
2023-05-22T12:06:18.153Z,98921.19
2023-05-22T12:09:20.788Z,98919.16
2023-05-22T12:12:23.306Z,98908.03
2023-05-22T12:15:25.789Z,98908.16
2023-05-22T12:18:36.889Z,98905.84
2023-05-22T12:21:40.972Z,98902.88
2023-05-22T12:24:46.319Z,98902.66
2023-05-22T12:27:48.659Z,98897.47
2023-05-22T12:30:57.912Z,98898.34
2023-05-22T12:34:01.467Z,98897.16
2023-05-22T12:37:03.828Z,98892.41
2023-05-22T12:40:06.903Z,98880.84
2023-05-22T12:43:09.219Z,98886.84
2023-05-22T12:46:11.559Z,98879.78
2023-05-22T12:49:13.863Z,98878.44
2023-05-22T12:52:16.172Z,98873.78
2023-05-22T12:55:18.514Z,98871.81
2023-05-22T12:58:20.847Z,98869.06
2023-05-22T13:01:24.448Z,98858.16
2023-05-22T13:04:26.862Z,98860.59
2023-05-22T13:07:29.225Z,98856.25
2023-05-22T13:10:31.668Z,98858.31
2023-05-22T13:13:33.999Z,98854.44
2023-05-22T13:16:36.801Z,98845.03
2023-05-22T13:19:39.320Z,98840.97
2023-05-22T13:22:41.891Z,98848.81
2023-05-22T13:25:44.250Z,98848.88
2023-05-22T13:28:46.738Z,98846.31
2023-05-22T13:31:49.131Z,98850.72
2023-05-22T13:34:51.448Z,98853.41
2023-05-22T13:37:53.957Z,98842.78
2023-05-22T13:40:56.334Z,98842.63
2023-05-22T13:43:58.689Z,98836.31
2023-05-22T13:47:01.159Z,98838.16
2023-05-22T13:50:03.666Z,98837.31
2023-05-22T13:53:06.050Z,98830.13
2023-05-22T13:56:08.394Z,98836.47
2023-05-22T13:59:10.842Z,98820.28
2023-05-22T14:02:13.511Z,98827.66
2023-05-22T14:05:15.939Z,98832.38
2023-05-22T14:08:18.323Z,98823.75
2023-05-22T14:11:21.729Z,98818.06
2023-05-22T14:14:24.898Z,98819.53
2023-05-22T14:17:27.221Z,98818.13
2023-05-22T14:20:35.059Z,98814.81
2023-05-22T14:23:37.545Z,98807.47
2023-05-22T14:26:41.448Z,98813.56
2023-05-22T14:29:46.317Z,98815.78
2023-05-22T14:33:05.685Z,98812.31
2023-05-22T14:36:10.062Z,98811.13
2023-05-22T14:42:31.661Z,98805.53
2023-05-22T14:45:34.694Z,98800.19
2023-05-22T14:48:37.291Z,98802.94
2023-05-22T14:51:39.576Z,98799.44
2023-05-22T14:54:42.787Z,98806.63
2023-05-22T14:57:45.522Z,98809.03
2023-05-22T15:00:47.782Z,98803.06
2023-05-22T15:03:50.071Z,98806.63
2023-05-22T15:06:52.403Z,98808.31
2023-05-22T15:09:56.450Z,98802.78
2023-05-22T15:12:58.718Z,98798.44
2023-05-22T15:16:01.376Z,98800.06
2023-05-22T15:19:03.770Z,98804.31
2023-05-22T15:22:18.890Z,98792.88
2023-05-22T15:25:22.116Z,98799.38
2023-05-22T15:28:24.598Z,98789.03
2023-05-22T15:31:30.974Z,98785.44
2023-05-22T15:34:33.284Z,98786.13
2023-05-22T15:37:36.569Z,98786.09
2023-05-22T15:40:43.424Z,98790.38
2023-05-22T15:43:46.468Z,98787.81
2023-05-22T15:46:48.733Z,98792.19
2023-05-22T15:49:51.243Z,98770.50
2023-05-22T15:52:53.532Z,98778.28
2023-05-22T15:55:55.791Z,98777.34
2023-05-22T15:58:58.281Z,98777.31
2023-05-22T16:02:00.667Z,98778.38
2023-05-22T16:05:02.976Z,98781.06
2023-05-22T16:08:12.400Z,98781.97
2023-05-22T16:11:14.688Z,98780.22
2023-05-22T16:14:17.150Z,98784.69
2023-05-22T16:17:19.474Z,98782.97
2023-05-22T16:20:22.738Z,98785.66
2023-05-22T16:23:25.199Z,98788.31
2023-05-22T16:26:27.553Z,98791.72
2023-05-22T16:29:32.267Z,98798.63
2023-05-22T16:32:34.777Z,98802.13
2023-05-22T16:35:37.143Z,98806.47
2023-05-22T16:38:39.551Z,98788.97
2023-05-22T16:41:41.891Z,98805.44
2023-05-22T16:44:44.268Z,98809.78
2023-05-22T16:47:46.621Z,98808.94
2023-05-22T16:50:48.988Z,98802.75
2023-05-22T16:53:51.300Z,98813.97
2023-05-22T16:56:53.694Z,98810.50
2023-05-22T16:59:57.825Z,98813.84
2023-05-22T17:03:00.650Z,98816.38
2023-05-22T17:06:03.660Z,98815.34
2023-05-22T17:09:05.941Z,98809.16
2023-05-22T17:12:08.897Z,98815.19
2023-05-22T17:15:11.895Z,98816.78
2023-05-22T17:18:17.772Z,98821.97
2023-05-22T17:21:20.637Z,98820.03
2023-05-22T17:24:22.984Z,98818.09
2023-05-22T17:27:35.418Z,98816.19
2023-05-22T17:30:39.303Z,98818.66
2023-05-22T17:33:43.320Z,98823.63
2023-05-22T17:36:45.670Z,98827.09
2023-05-22T17:39:47.989Z,98823.41
2023-05-22T17:42:50.321Z,98822.31
2023-05-22T17:45:53.828Z,98827.47
2023-05-22T17:48:56.509Z,98829.84
2023-05-22T17:51:58.835Z,98826.03
2023-05-22T17:55:01.156Z,98820.50
2023-05-22T17:58:03.499Z,98815.13
2023-05-22T18:01:08.146Z,98816.50
2023-05-22T18:04:12.364Z,98821.28
2023-05-22T18:07:17.898Z,98818.50
2023-05-22T18:10:25.969Z,98821.84
2023-05-22T18:13:29.280Z,98829.50
2023-05-22T18:16:36.276Z,98838.78
2023-05-22T18:19:45.850Z,98844.47
2023-05-22T18:22:50.203Z,98844.38
2023-05-22T18:25:52.737Z,98843.44
2023-05-22T18:28:58.690Z,98848.50
2023-05-22T18:32:03.221Z,98856.88
2023-05-22T18:35:08.150Z,98859.47
2023-05-22T18:38:19.512Z,98858.63
2023-05-22T18:41:22.450Z,98854.16
2023-05-22T18:44:24.743Z,98856.44
2023-05-22T18:47:27.120Z,98857.97
2023-05-22T18:50:29.598Z,98857.84
2023-05-22T18:53:31.940Z,98857.47
2023-05-22T18:56:34.225Z,98859.25
2023-05-22T18:59:37.267Z,98857.38
2023-05-22T19:02:39.615Z,98867.16
2023-05-22T19:05:43.049Z,98869.53
2023-05-22T19:08:45.738Z,98879.00
2023-05-22T19:11:48.102Z,98870.88
2023-05-22T19:15:01.798Z,98880.38
2023-05-22T19:18:04.251Z,98874.47
2023-05-22T19:21:08.249Z,98883.41
2023-05-22T19:24:16.429Z,98884.31
2023-05-22T19:27:22.971Z,98882.38
2023-05-22T19:30:27.174Z,98881.19
2023-05-22T19:33:35.923Z,98888.66
2023-05-22T19:36:48.799Z,98893.38
2023-05-22T19:39:51.312Z,98892.75
2023-05-22T19:42:57.276Z,98890.69
2023-05-22T19:46:02.723Z,98895.84
2023-05-22T19:49:09.105Z,98891.03
2023-05-22T19:52:21.204Z,98884.50
2023-05-22T19:55:27.333Z,98893.00
2023-05-22T19:58:30.051Z,98891.09
2023-05-22T20:01:37.193Z,98891.03
2023-05-22T20:04:44.028Z,98892.84
2023-05-22T20:07:49.415Z,98889.22
2023-05-22T20:11:01.125Z,98890.84
2023-05-22T20:14:08.049Z,98890.16
2023-05-22T20:17:13.488Z,98888.56
2023-05-22T20:20:22.204Z,98883.03
2023-05-22T20:23:28.090Z,98884.38
2023-05-22T20:26:34.103Z,98884.53
2023-05-22T20:29:36.923Z,98877.44
2023-05-22T20:32:40.378Z,98882.31
2023-05-22T20:35:43.910Z,98878.66
2023-05-22T20:38:47.525Z,98879.63
2023-05-22T20:41:50.528Z,98869.22
2023-05-22T20:45:05.532Z,98884.41
2023-05-22T20:48:09.359Z,98872.50
2023-05-22T20:51:21.114Z,98879.19
2023-05-22T20:54:23.486Z,98876.31
2023-05-22T20:57:27.042Z,98878.16
2023-05-22T21:00:32.071Z,98879.91
2023-05-22T21:03:34.703Z,98872.88
2023-05-22T21:06:37.109Z,98876.91
2023-05-22T21:09:39.493Z,98864.72
2023-05-22T21:12:41.791Z,98877.06
2023-05-22T21:15:44.133Z,98867.38
2023-05-22T21:18:46.698Z,98872.25
2023-05-22T21:21:48.990Z,98878.97
2023-05-22T21:24:51.317Z,98884.69
2023-05-22T21:27:54.544Z,98884.41
2023-05-22T21:30:56.906Z,98896.38
2023-05-22T21:33:59.239Z,98890.69
2023-05-22T21:37:01.551Z,98888.97
2023-05-22T21:40:04.079Z,98881.78
2023-05-22T21:43:06.568Z,98878.44
2023-05-22T21:46:08.911Z,98880.81
2023-05-22T21:49:11.208Z,98883.03
2023-05-22T21:52:15.574Z,98886.19
2023-05-22T21:55:17.884Z,98887.78
2023-05-22T21:58:20.427Z,98887.91
2023-05-22T22:01:23.529Z,98885.28
2023-05-22T22:04:25.830Z,98889.63
2023-05-22T22:07:28.109Z,98885.19
2023-05-22T22:10:30.536Z,98892.72
2023-05-22T22:13:32.908Z,98884.59
2023-05-22T22:16:36.096Z,98882.78
2023-05-22T22:19:38.573Z,98877.25
2023-05-22T22:22:41.112Z,98897.47
2023-05-22T22:25:43.365Z,98904.47
2023-05-22T22:28:45.940Z,98884.63
2023-05-22T22:31:48.338Z,98885.09
2023-05-22T22:34:54.624Z,98884.72
2023-05-22T22:37:56.910Z,98878.75
2023-05-22T22:41:00.451Z,98882.25
2023-05-22T22:44:02.918Z,98877.34
2023-05-22T22:47:05.552Z,98884.16
2023-05-22T22:50:09.997Z,98885.81
2023-05-22T22:53:12.336Z,98879.44
2023-05-22T22:56:14.827Z,98879.19
2023-05-22T22:59:17.527Z,98877.28
2023-05-22T23:02:19.869Z,98877.97
2023-05-22T23:05:22.920Z,98876.22
2023-05-22T23:08:25.962Z,98869.84
2023-05-22T23:11:37.469Z,98870.19
2023-05-22T23:14:39.950Z,98864.63
2023-05-22T23:17:42.310Z,98876.97
2023-05-22T23:20:44.670Z,98867.59
2023-05-22T23:23:46.993Z,98864.22
2023-05-22T23:26:49.298Z,98866.59
2023-05-22T23:29:51.756Z,98865.78
2023-05-22T23:32:54.116Z,98861.56
2023-05-22T23:35:56.465Z,98862.94
2023-05-22T23:38:58.736Z,98860.28
2023-05-22T23:42:02.231Z,98863.53
2023-05-22T23:45:05.006Z,98857.38
2023-05-22T23:48:07.415Z,98855.75
2023-05-22T23:51:10.101Z,98855.00
2023-05-22T23:54:13.192Z,98855.00
2023-05-22T23:57:15.703Z,98859.97
